createdAt,value
2023-05-19T00:01:31.625Z,19.45
2023-05-19T00:04:03.171Z,15.90
2023-05-19T00:06:32.420Z,11.15
2023-05-19T00:09:07.495Z,10.05
2023-05-19T00:11:39.367Z,9.67
2023-05-19T00:14:09.880Z,9.73
2023-05-19T00:16:38.660Z,10.07
2023-05-19T00:19:10.800Z,9.95
2023-05-19T00:21:41.255Z,8.93
2023-05-19T00:24:09.023Z,10.40
2023-05-19T00:26:36.664Z,10.20
2023-05-19T00:29:06.430Z,9.95
2023-05-19T00:31:36.920Z,9.88
2023-05-19T00:34:04.864Z,10.75
2023-05-19T00:36:32.426Z,10.50
2023-05-19T00:39:00.363Z,10.55
2023-05-19T00:41:29.095Z,11.05
2023-05-19T00:43:57.152Z,10.93
2023-05-19T00:46:25.574Z,10.90
2023-05-19T00:48:53.636Z,11.00
2023-05-19T00:51:21.239Z,10.00
2023-05-19T00:53:49.602Z,11.57
2023-05-19T00:56:17.785Z,11.82
2023-05-19T00:58:45.962Z,10.93
2023-05-19T01:01:17.587Z,11.60
2023-05-19T01:03:45.603Z,11.13
2023-05-19T01:06:13.430Z,10.40
2023-05-19T01:08:41.593Z,11.63
2023-05-19T01:11:09.102Z,10.05
2023-05-19T01:13:38.591Z,12.23
2023-05-19T01:16:24.312Z,11.18
2023-05-19T01:19:29.598Z,11.52
2023-05-19T01:22:14.880Z,10.93
2023-05-19T01:25:20.226Z,11.30
2023-05-19T01:28:26.666Z,11.03
2023-05-19T01:30:57.422Z,11.25
2023-05-19T01:33:25.140Z,11.38
2023-05-19T01:35:55.302Z,11.95
2023-05-19T01:38:26.380Z,11.35
2023-05-19T01:40:55.522Z,12.33
2023-05-19T01:43:26.220Z,10.95
2023-05-19T01:45:55.708Z,11.65
2023-05-19T01:48:23.871Z,11.48
2023-05-19T01:50:52.687Z,10.88
2023-05-19T01:53:20.369Z,11.20
2023-05-19T01:55:51.125Z,10.98
2023-05-19T01:58:38.341Z,12.23
2023-05-19T02:01:25.047Z,11.98
2023-05-19T02:04:20.557Z,11.68
2023-05-19T02:07:01.528Z,10.93
2023-05-19T02:09:50.782Z,12.45
2023-05-19T02:12:32.836Z,11.48
2023-05-19T02:15:12.711Z,12.38
2023-05-19T02:17:48.076Z,12.88
2023-05-19T02:20:16.538Z,12.27
2023-05-19T02:22:45.313Z,12.10
2023-05-19T02:25:14.211Z,13.10
2023-05-19T02:27:42.439Z,13.18
2023-05-19T02:30:10.878Z,12.65
2023-05-19T02:32:38.751Z,12.13
2023-05-19T02:35:06.843Z,12.30
2023-05-19T02:37:35.730Z,12.55
2023-05-19T02:40:04.178Z,13.65
2023-05-19T02:42:32.260Z,12.18
2023-05-19T02:45:00.950Z,12.00
2023-05-19T02:47:28.939Z,12.52
2023-05-19T02:49:56.624Z,11.95
2023-05-19T02:52:25.897Z,11.80
2023-05-19T02:54:53.531Z,12.10
2023-05-19T02:57:21.314Z,11.83
2023-05-19T02:59:48.859Z,10.98
2023-05-19T03:02:16.746Z,12.23
2023-05-19T03:04:44.569Z,11.60
2023-05-19T03:07:14.507Z,11.15
2023-05-19T03:09:42.791Z,11.23
2023-05-19T03:12:11.226Z,10.68
2023-05-19T03:14:39.838Z,11.85
2023-05-19T03:17:08.460Z,13.32
2023-05-19T03:19:36.630Z,13.13
2023-05-19T03:22:07.592Z,11.67
2023-05-19T03:24:37.169Z,12.02
2023-05-19T03:27:06.205Z,11.30
2023-05-19T03:29:34.052Z,11.32
2023-05-19T03:32:02.158Z,12.02
2023-05-19T03:34:29.799Z,11.50
2023-05-19T03:36:58.640Z,11.60
2023-05-19T03:39:26.307Z,12.02
2023-05-19T03:41:54.300Z,11.88
2023-05-19T03:44:21.914Z,10.40
2023-05-19T03:46:49.953Z,10.07
2023-05-19T03:49:40.827Z,11.05
2023-05-19T03:52:27.286Z,10.07
2023-05-19T03:55:07.392Z,10.63
2023-05-19T03:57:35.302Z,10.93
2023-05-19T04:00:04.434Z,11.10
2023-05-19T04:02:41.656Z,10.95
2023-05-19T04:05:10.747Z,11.48
2023-05-19T04:07:38.567Z,10.77
2023-05-19T04:10:07.071Z,10.43
2023-05-19T04:12:34.993Z,11.30
2023-05-19T04:15:02.575Z,12.25
2023-05-19T04:17:30.429Z,11.00
2023-05-19T04:19:58.047Z,11.02
2023-05-19T04:22:26.088Z,11.25
2023-05-19T04:24:53.927Z,11.47
2023-05-19T04:27:22.251Z,11.43
2023-05-19T04:29:50.782Z,11.60
2023-05-19T04:32:18.936Z,11.60
2023-05-19T04:34:46.779Z,10.25
2023-05-19T04:37:21.348Z,9.77
2023-05-19T04:39:52.554Z,10.75
2023-05-19T04:42:21.971Z,10.55
2023-05-19T04:44:52.060Z,10.43
2023-05-19T04:47:22.011Z,11.38
2023-05-19T04:49:50.205Z,10.40
2023-05-19T04:52:22.633Z,10.48
2023-05-19T04:54:53.205Z,10.32
2023-05-19T04:57:21.244Z,9.77
2023-05-19T04:59:49.798Z,10.05
2023-05-19T05:02:17.961Z,10.83
2023-05-19T05:04:46.841Z,9.90
2023-05-19T05:07:15.387Z,10.25
2023-05-19T05:09:43.395Z,10.45
2023-05-19T05:12:12.350Z,10.07
2023-05-19T05:14:41.928Z,8.97
2023-05-19T05:17:13.443Z,8.00
2023-05-19T05:19:42.990Z,7.55
2023-05-19T05:22:11.505Z,7.43
2023-05-19T05:24:40.965Z,7.85
2023-05-19T05:27:10.601Z,6.97
2023-05-19T05:29:38.318Z,7.72
2023-05-19T05:32:08.358Z,7.88
2023-05-19T05:34:38.493Z,7.15
2023-05-19T05:37:06.418Z,7.28
2023-05-19T05:39:35.199Z,7.40
2023-05-19T05:42:03.205Z,6.28
2023-05-19T05:44:31.264Z,6.57
2023-05-19T05:47:00.144Z,7.28
2023-05-19T05:49:28.159Z,6.85
2023-05-19T05:52:05.577Z,7.33
2023-05-19T05:54:41.984Z,6.18
2023-05-19T05:57:11.211Z,6.13
2023-05-19T05:59:41.140Z,6.13
2023-05-19T06:02:09.569Z,6.00
2023-05-19T06:04:37.298Z,6.30
2023-05-19T06:07:07.019Z,6.47
2023-05-19T06:09:37.674Z,6.80
2023-05-19T06:12:07.491Z,6.10
2023-05-19T06:14:40.985Z,6.50
2023-05-19T06:17:12.269Z,6.77
2023-05-19T06:19:40.607Z,6.20
2023-05-19T06:22:08.904Z,6.78
2023-05-19T06:24:38.739Z,6.38
2023-05-19T06:27:10.171Z,7.45
2023-05-19T06:29:38.810Z,7.37
2023-05-19T06:32:08.544Z,6.75
2023-05-19T06:34:38.712Z,7.32
2023-05-19T06:37:07.157Z,7.40
2023-05-19T06:39:35.230Z,6.43
2023-05-19T06:42:04.858Z,7.37
2023-05-19T06:44:53.764Z,6.75
2023-05-19T06:47:22.313Z,7.78
2023-05-19T06:49:51.704Z,7.60
2023-05-19T06:52:19.937Z,7.13
2023-05-19T06:54:47.787Z,7.37
2023-05-19T06:57:17.473Z,8.02
2023-05-19T06:59:47.034Z,7.45
2023-05-19T07:02:15.984Z,7.38
2023-05-19T07:04:43.653Z,7.47
2023-05-19T07:07:14.925Z,7.00
2023-05-19T07:09:43.317Z,7.88
2023-05-19T07:12:11.302Z,7.30
2023-05-19T07:14:40.168Z,7.80
2023-05-19T07:17:08.464Z,8.18
2023-05-19T07:19:38.039Z,8.40
2023-05-19T07:22:06.198Z,8.80
2023-05-19T07:24:33.985Z,9.30
2023-05-19T07:27:02.219Z,9.45
2023-05-19T07:29:29.938Z,8.10
2023-05-19T07:31:58.357Z,9.10
2023-05-19T07:34:26.218Z,9.95
2023-05-19T07:36:54.696Z,8.88
2023-05-19T07:39:22.545Z,8.88
2023-05-19T07:41:54.806Z,8.32
2023-05-19T07:44:22.791Z,8.43
2023-05-19T07:46:50.721Z,8.35
2023-05-19T07:49:18.782Z,9.25
2023-05-19T07:51:47.412Z,8.05
2023-05-19T07:54:15.475Z,8.25
2023-05-19T07:56:43.627Z,7.23
2023-05-19T07:59:11.721Z,7.60
2023-05-19T08:01:39.853Z,8.18
2023-05-19T08:04:08.643Z,6.63
2023-05-19T08:06:38.804Z,6.88
2023-05-19T08:09:06.736Z,6.93
2023-05-19T08:11:34.840Z,6.78
2023-05-19T08:14:02.822Z,6.63
2023-05-19T08:16:30.909Z,6.88
2023-05-19T08:19:01.340Z,7.57
2023-05-19T08:21:29.564Z,6.67
2023-05-19T08:23:57.499Z,7.15
2023-05-19T08:26:26.700Z,9.75
2023-05-19T08:28:54.598Z,9.25
2023-05-19T08:31:23.137Z,7.72
2023-05-19T08:33:50.998Z,7.50
2023-05-19T08:36:19.907Z,8.95
2023-05-19T08:38:47.568Z,7.95
2023-05-19T08:41:16.965Z,7.07
2023-05-19T08:43:45.597Z,7.40
2023-05-19T08:46:15.393Z,7.30
2023-05-19T08:48:45.610Z,7.18
2023-05-19T08:51:25.847Z,8.00
2023-05-19T08:53:58.578Z,8.45
2023-05-19T08:56:28.199Z,7.82
2023-05-19T08:59:00.179Z,7.70
2023-05-19T09:01:30.739Z,8.27
2023-05-19T09:03:59.453Z,8.35
2023-05-19T09:06:38.857Z,7.65
2023-05-19T09:09:11.830Z,8.18
2023-05-19T09:11:40.876Z,7.87
2023-05-19T09:14:08.528Z,8.15
2023-05-19T09:16:37.032Z,8.23
2023-05-19T09:19:04.894Z,7.65
2023-05-19T09:21:33.693Z,8.70
2023-05-19T09:24:06.764Z,7.50
2023-05-19T09:26:39.429Z,7.00
2023-05-19T09:29:22.619Z,7.53
2023-05-19T09:31:55.436Z,7.80
2023-05-19T09:34:28.211Z,6.93
2023-05-19T09:36:58.550Z,7.10
2023-05-19T09:39:26.947Z,6.63
2023-05-19T09:42:14.746Z,6.75
2023-05-19T09:44:43.525Z,6.53
2023-05-19T09:47:11.877Z,6.47
2023-05-19T09:50:24.560Z,6.53
2023-05-19T09:52:53.428Z,6.37
2023-05-19T09:55:23.795Z,5.88
2023-05-19T09:58:19.979Z,6.80
2023-05-19T10:00:49.561Z,6.53
2023-05-19T10:03:22.997Z,6.50
2023-05-19T10:05:54.268Z,7.53
2023-05-19T10:08:30.990Z,7.18
2023-05-19T10:11:04.269Z,7.90
2023-05-19T10:13:35.027Z,6.70
2023-05-19T10:16:03.865Z,6.45
2023-05-19T10:18:39.891Z,7.43
2023-05-19T10:21:10.306Z,7.72
2023-05-19T10:23:40.180Z,7.28
2023-05-19T10:26:09.777Z,6.88
2023-05-19T10:28:41.611Z,6.72
2023-05-19T10:31:18.881Z,6.90
2023-05-19T10:34:12.410Z,7.75
2023-05-19T10:37:13.080Z,7.75
2023-05-19T10:39:44.489Z,6.80
2023-05-19T10:42:41.725Z,6.95
2023-05-19T10:45:40.055Z,7.53
2023-05-19T10:48:14.625Z,7.30
2023-05-19T10:50:50.371Z,6.95
2023-05-19T10:53:19.645Z,6.90
2023-05-19T10:55:56.544Z,6.60
2023-05-19T10:58:52.983Z,6.90
2023-05-19T11:01:25.295Z,6.32
2023-05-19T11:03:57.725Z,7.20
2023-05-19T11:06:31.195Z,7.13
2023-05-19T11:09:10.794Z,7.13
2023-05-19T11:11:52.951Z,7.13
2023-05-19T11:14:27.242Z,6.97
2023-05-19T11:17:00.608Z,6.55
2023-05-19T11:19:37.952Z,7.18
2023-05-19T11:22:28.832Z,7.32
2023-05-19T11:24:56.800Z,6.43
2023-05-19T11:27:52.266Z,6.60
2023-05-19T11:30:30.018Z,8.27
2023-05-19T11:33:14.003Z,7.28
2023-05-19T11:36:03.085Z,7.28
2023-05-19T11:38:38.452Z,7.00
2023-05-19T11:41:21.745Z,7.03
2023-05-19T11:43:50.351Z,7.38
2023-05-19T11:46:18.865Z,7.20
2023-05-19T11:49:17.823Z,7.00
2023-05-19T11:51:46.204Z,7.73
2023-05-19T11:54:14.213Z,7.10
2023-05-19T11:56:45.609Z,8.55
2023-05-19T11:59:14.423Z,7.50
2023-05-19T12:01:42.104Z,7.43
2023-05-19T12:04:15.229Z,7.13
2023-05-19T12:06:43.031Z,6.97
2023-05-19T12:09:11.463Z,7.63
2023-05-19T12:11:39.142Z,7.50
2023-05-19T12:14:08.673Z,7.43
2023-05-19T12:16:36.751Z,6.33
2023-05-19T12:19:07.930Z,7.50
2023-05-19T12:21:36.445Z,7.88
2023-05-19T12:24:06.366Z,7.32
2023-05-19T12:26:35.512Z,7.55
2023-05-19T12:29:20.108Z,7.53
2023-05-19T12:31:48.224Z,7.20
2023-05-19T12:34:25.845Z,7.50
2023-05-19T12:36:57.657Z,7.00
2023-05-19T12:39:27.277Z,7.70
2023-05-19T12:42:08.186Z,8.00
2023-05-19T12:44:40.951Z,7.07
2023-05-19T12:47:17.222Z,7.35
2023-05-19T12:50:02.252Z,6.80
2023-05-19T12:52:36.460Z,5.82
2023-05-19T12:55:12.112Z,5.80
2023-05-19T12:57:41.985Z,6.35
2023-05-19T13:00:31.676Z,6.03
2023-05-19T13:03:08.052Z,6.70
2023-05-19T13:05:44.046Z,6.40
2023-05-19T13:08:17.045Z,6.10
2023-05-19T13:10:47.319Z,6.80
2023-05-19T13:13:30.104Z,7.07
2023-05-19T13:15:59.905Z,6.97
2023-05-19T13:18:40.376Z,7.88
2023-05-19T13:21:25.936Z,7.73
2023-05-19T13:23:53.867Z,8.30
2023-05-19T13:26:21.939Z,8.82
2023-05-19T13:28:50.093Z,8.20
2023-05-19T13:31:33.843Z,9.02
2023-05-19T13:34:01.914Z,7.97
2023-05-19T13:36:29.690Z,7.68
2023-05-19T13:38:57.712Z,7.78
2023-05-19T13:41:31.039Z,9.10
2023-05-19T13:44:02.564Z,8.23
2023-05-19T13:46:44.188Z,8.27
2023-05-19T13:49:14.143Z,8.43
2023-05-19T13:51:44.752Z,8.15
2023-05-19T13:54:37.450Z,8.68
2023-05-19T13:57:12.387Z,8.00
2023-05-19T13:59:49.281Z,7.67
2023-05-19T14:02:45.591Z,9.40
2023-05-19T14:05:13.892Z,7.75
2023-05-19T14:07:42.828Z,8.27
2023-05-19T14:10:12.472Z,8.55
2023-05-19T14:13:04.978Z,8.50
2023-05-19T14:15:32.949Z,8.57
2023-05-19T14:18:07.568Z,9.13
2023-05-19T14:20:39.800Z,8.82
2023-05-19T14:23:07.500Z,9.00
2023-05-19T14:25:35.569Z,8.80
2023-05-19T14:28:03.345Z,8.82
2023-05-19T14:30:31.710Z,8.52
2023-05-19T14:33:02.302Z,8.20
2023-05-19T14:35:33.671Z,9.30
2023-05-19T14:38:01.281Z,7.63
2023-05-19T14:40:31.596Z,7.90
2023-05-19T14:42:59.606Z,8.05
2023-05-19T14:45:27.525Z,8.05
2023-05-19T14:47:55.152Z,8.82
2023-05-19T14:50:23.244Z,8.27
2023-05-19T14:52:51.159Z,8.23
2023-05-19T14:55:18.933Z,7.90
2023-05-19T14:57:46.816Z,7.10
2023-05-19T15:00:14.990Z,7.47
2023-05-19T15:02:42.969Z,6.10
2023-05-19T15:05:12.142Z,6.13
2023-05-19T15:07:39.913Z,5.78
2023-05-19T15:10:08.549Z,5.72
2023-05-19T15:12:36.337Z,5.22
2023-05-19T15:15:05.491Z,5.67
2023-05-19T15:17:33.178Z,5.82
2023-05-19T15:20:01.138Z,5.47
2023-05-19T15:22:28.958Z,5.60
2023-05-19T15:25:06.704Z,5.75
2023-05-19T15:27:36.795Z,6.60
2023-05-19T15:30:06.215Z,5.93
2023-05-19T15:32:34.203Z,5.97
2023-05-19T15:35:03.855Z,5.60
2023-05-19T15:38:02.913Z,6.80
2023-05-19T15:41:08.291Z,5.77
2023-05-19T15:43:47.991Z,6.78
2023-05-19T15:46:19.542Z,6.38
2023-05-19T15:48:47.325Z,6.35
2023-05-19T15:51:15.268Z,6.20
2023-05-19T15:53:43.237Z,6.63
2023-05-19T15:56:11.377Z,6.63
2023-05-19T15:58:38.947Z,6.50
2023-05-19T16:01:07.943Z,6.63
2023-05-19T16:03:35.706Z,6.85
2023-05-19T16:06:04.385Z,7.37
2023-05-19T16:08:32.249Z,7.05
2023-05-19T16:11:00.349Z,6.82
2023-05-19T16:13:28.059Z,6.82
2023-05-19T16:15:56.422Z,6.97
2023-05-19T16:18:24.108Z,7.30
2023-05-19T16:20:52.860Z,7.70
2023-05-19T16:23:20.553Z,7.43
2023-05-19T16:25:49.747Z,6.78
2023-05-19T16:28:30.911Z,9.40
2023-05-19T16:31:00.412Z,7.40
2023-05-19T16:33:31.782Z,7.78
2023-05-19T16:36:32.545Z,6.80
2023-05-19T16:39:17.332Z,7.25
2023-05-19T16:41:48.428Z,7.72
2023-05-19T16:44:32.749Z,6.57
2023-05-19T16:47:04.655Z,6.82
2023-05-19T16:49:33.946Z,6.50
2023-05-19T16:52:01.831Z,7.32
2023-05-19T16:54:29.599Z,7.75
2023-05-19T16:56:58.223Z,7.63
2023-05-19T16:59:27.144Z,7.25
2023-05-19T17:01:56.347Z,7.85
2023-05-19T17:04:30.633Z,7.53
2023-05-19T17:07:00.501Z,8.43
2023-05-19T17:09:28.123Z,8.33
2023-05-19T17:11:57.295Z,8.20
2023-05-19T17:14:25.088Z,8.70
2023-05-19T17:16:53.152Z,8.73
2023-05-19T17:19:21.139Z,7.07
2023-05-19T17:21:49.314Z,6.97
2023-05-19T17:24:17.191Z,7.55
2023-05-19T17:26:45.252Z,8.45
2023-05-19T17:29:13.044Z,9.35
2023-05-19T17:31:58.698Z,14.63
2023-05-19T17:34:28.485Z,11.97
2023-05-19T17:36:56.821Z,10.35
2023-05-19T17:39:30.321Z,9.27
2023-05-19T17:42:01.347Z,8.88
2023-05-19T17:44:30.685Z,9.35
2023-05-19T17:47:02.844Z,9.93
2023-05-19T17:49:55.916Z,10.18
2023-05-19T17:56:23.566Z,8.70
2023-05-19T17:58:55.855Z,8.77
2023-05-19T18:01:26.104Z,8.47
2023-05-19T18:03:54.954Z,7.82
2023-05-19T18:06:25.346Z,8.75
2023-05-19T18:09:02.061Z,9.68
2023-05-19T18:11:32.019Z,10.30
2023-05-19T18:14:10.114Z,8.93
2023-05-19T18:16:45.359Z,10.88
2023-05-19T18:19:27.217Z,11.30
2023-05-19T18:22:09.389Z,7.72
2023-05-19T18:24:53.607Z,7.13
2023-05-19T18:27:33.769Z,7.33
2023-05-19T18:30:22.887Z,8.07
2023-05-19T18:32:51.767Z,7.82
2023-05-19T18:35:21.457Z,7.65
2023-05-19T18:38:15.233Z,7.93
2023-05-19T18:40:44.066Z,8.00
2023-05-19T18:43:34.911Z,8.38
2023-05-19T18:46:17.995Z,7.30
2023-05-19T18:49:02.865Z,7.90
2023-05-19T18:51:38.570Z,8.15
2023-05-19T18:54:20.202Z,9.03
2023-05-19T18:57:01.827Z,8.13
2023-05-19T18:59:42.763Z,8.30
2023-05-19T19:02:13.728Z,7.38
2023-05-19T19:05:00.886Z,8.60
2023-05-19T19:08:11.820Z,8.37
2023-05-19T19:10:41.053Z,8.18
2023-05-19T19:13:09.216Z,8.82
2023-05-19T19:15:37.294Z,9.10
2023-05-19T19:18:07.478Z,9.25
2023-05-19T19:20:36.063Z,9.50
2023-05-19T19:23:06.973Z,15.75
2023-05-19T19:25:35.184Z,9.02
2023-05-19T19:28:03.947Z,8.63
2023-05-19T19:30:32.324Z,9.02
2023-05-19T19:33:00.606Z,8.47
2023-05-19T19:35:28.442Z,7.78
2023-05-19T19:37:56.477Z,8.00
2023-05-19T19:40:25.258Z,8.25
2023-05-19T19:42:53.262Z,7.78
2023-05-19T19:45:21.349Z,8.77
2023-05-19T19:47:49.318Z,9.60
2023-05-19T19:50:17.357Z,8.93
2023-05-19T19:52:45.239Z,8.05
2023-05-19T19:55:12.924Z,8.88
2023-05-19T19:57:41.978Z,8.53
2023-05-19T20:00:10.428Z,11.82
2023-05-19T20:02:48.313Z,10.40
2023-05-19T20:05:23.728Z,9.32
2023-05-19T20:07:51.649Z,9.90
2023-05-19T20:10:19.273Z,13.27
2023-05-19T20:12:48.196Z,11.13
2023-05-19T20:15:16.384Z,9.57
2023-05-19T20:17:44.335Z,10.52
2023-05-19T20:20:12.652Z,9.73
2023-05-19T20:22:40.501Z,9.60
2023-05-19T20:25:08.898Z,9.50
2023-05-19T20:27:36.822Z,10.00
2023-05-19T20:30:04.931Z,10.55
2023-05-19T20:32:32.925Z,10.30
2023-05-19T20:35:01.019Z,9.73
2023-05-19T20:37:28.922Z,10.73
2023-05-19T20:39:56.472Z,10.93
2023-05-19T20:42:24.503Z,11.00
2023-05-19T20:44:52.387Z,10.45
2023-05-19T20:47:21.295Z,10.63
2023-05-19T20:49:49.042Z,10.27
2023-05-19T20:52:17.736Z,10.95
2023-05-19T20:54:48.236Z,11.00
2023-05-19T20:57:16.557Z,11.70
2023-05-19T20:59:44.175Z,11.13
2023-05-19T21:02:12.165Z,11.48
2023-05-19T21:04:40.004Z,10.82
2023-05-19T21:07:08.099Z,10.48
2023-05-19T21:09:35.935Z,10.98
2023-05-19T21:12:04.283Z,12.00
2023-05-19T21:14:31.879Z,12.45
2023-05-19T21:17:00.179Z,12.57
2023-05-19T21:19:28.317Z,13.00
2023-05-19T21:21:57.331Z,13.40
2023-05-19T21:24:24.804Z,12.13
2023-05-19T21:26:53.118Z,13.38
2023-05-19T21:29:20.823Z,10.90
2023-05-19T21:31:48.681Z,11.48
2023-05-19T21:34:16.273Z,11.90
2023-05-19T21:36:44.215Z,11.00
2023-05-19T21:39:12.338Z,11.68
2023-05-19T21:41:40.340Z,10.40
2023-05-19T21:44:07.806Z,11.10
2023-05-19T21:46:35.863Z,11.10
2023-05-19T21:49:03.641Z,10.70
2023-05-19T21:51:32.467Z,10.38
2023-05-19T21:53:59.984Z,10.75
2023-05-19T21:56:28.401Z,10.25
2023-05-19T21:58:56.695Z,11.15
2023-05-19T22:01:24.986Z,9.87
2023-05-19T22:03:53.428Z,10.43
2023-05-19T22:06:22.164Z,10.57
2023-05-19T22:08:49.824Z,10.20
2023-05-19T22:11:18.533Z,12.20
2023-05-19T22:13:46.264Z,11.30
2023-05-19T22:16:14.228Z,11.02
2023-05-19T22:18:42.106Z,11.43
2023-05-19T22:21:10.043Z,10.88
2023-05-19T22:23:37.472Z,9.70
2023-05-19T22:26:05.662Z,10.33
2023-05-19T22:28:33.344Z,9.63
2023-05-19T22:31:01.568Z,10.18
2023-05-19T22:33:29.167Z,11.07
2023-05-19T22:35:57.151Z,10.27
2023-05-19T22:38:24.793Z,10.50
2023-05-19T22:40:52.951Z,10.15
2023-05-19T22:43:20.721Z,10.88
2023-05-19T22:45:48.667Z,11.05
2023-05-19T22:48:16.703Z,10.32
2023-05-19T22:50:44.663Z,10.30
2023-05-19T22:53:12.133Z,9.52
2023-05-19T22:55:40.298Z,9.88
2023-05-19T22:58:07.823Z,9.80
2023-05-19T23:00:35.987Z,9.35
2023-05-19T23:03:03.606Z,8.90
2023-05-19T23:05:32.095Z,8.98
2023-05-19T23:07:59.997Z,9.95
2023-05-19T23:10:28.064Z,10.88
2023-05-19T23:12:55.699Z,10.57
2023-05-19T23:15:24.097Z,9.90
2023-05-19T23:17:51.958Z,10.68
2023-05-19T23:20:20.007Z,10.27
2023-05-19T23:22:47.434Z,10.05
2023-05-19T23:25:15.349Z,10.80
2023-05-19T23:27:42.878Z,9.97
2023-05-19T23:30:11.250Z,10.13
2023-05-19T23:32:38.801Z,9.88
2023-05-19T23:35:17.861Z,9.10
2023-05-19T23:37:45.571Z,8.93
2023-05-19T23:40:13.957Z,8.50
2023-05-19T23:42:41.667Z,8.93
2023-05-19T23:45:10.037Z,8.57
2023-05-19T23:47:37.808Z,9.10
2023-05-19T23:50:06.089Z,8.95
2023-05-19T23:52:33.774Z,9.10
2023-05-19T23:55:01.744Z,9.25
2023-05-19T23:57:29.327Z,9.25
2023-05-19T23:59:57.210Z,8.63
